createdAt,value
2023-05-09T00:00:27.292Z,101877.03
2023-05-09T00:02:54.246Z,101865.66
2023-05-09T00:05:21.724Z,101862.19
2023-05-09T00:07:48.572Z,101857.88
2023-05-09T00:10:15.346Z,101864.94
2023-05-09T00:12:43.688Z,101855.53
2023-05-09T00:15:10.663Z,101856.56
2023-05-09T00:17:38.611Z,101854.88
2023-05-09T00:20:09.352Z,101856.59
2023-05-09T00:22:35.896Z,101852.31
2023-05-09T00:25:04.801Z,101844.41
2023-05-09T00:27:31.336Z,101851.56
2023-05-09T00:29:57.715Z,101863.09
2023-05-09T00:32:25.724Z,101860.72
2023-05-09T00:34:52.182Z,101858.28
2023-05-09T00:37:19.245Z,101857.78
2023-05-09T00:39:46.150Z,101851.13
2023-05-09T00:42:12.564Z,101845.97
2023-05-09T00:44:38.981Z,101846.84
2023-05-09T00:47:07.141Z,101851.22
2023-05-09T00:49:33.778Z,101843.63
2023-05-09T00:52:02.179Z,101834.13
2023-05-09T00:54:28.857Z,101837.59
2023-05-09T00:56:55.389Z,101836.03
2023-05-09T00:59:22.106Z,101842.97
2023-05-09T01:01:48.626Z,101839.50
2023-05-09T01:04:15.420Z,101836.69
2023-05-09T01:07:22.006Z,101831.25
2023-05-09T01:10:18.282Z,101823.38
2023-05-09T01:12:54.207Z,101811.09
2023-05-09T01:16:01.428Z,101813.97
2023-05-09T01:18:43.315Z,101811.63
2023-05-09T01:21:39.132Z,101803.84
2023-05-09T01:24:32.013Z,101798.69
2023-05-09T01:27:26.852Z,101800.66
2023-05-09T01:29:58.101Z,101801.47
2023-05-09T01:32:28.395Z,101787.53
2023-05-09T01:34:59.341Z,101784.13
2023-05-09T01:37:32.861Z,101777.97
2023-05-09T01:40:05.758Z,101776.47
2023-05-09T01:42:42.533Z,101787.22
2023-05-09T01:45:10.951Z,101784.69
2023-05-09T01:47:39.411Z,101785.59
2023-05-09T01:50:07.614Z,101782.13
2023-05-09T01:52:36.284Z,101779.63
2023-05-09T01:55:03.603Z,101775.09
2023-05-09T01:57:30.983Z,101778.97
2023-05-09T01:59:59.044Z,101781.00
2023-05-09T02:02:28.029Z,101774.41
2023-05-09T02:04:58.679Z,101766.44
2023-05-09T02:07:25.603Z,101765.53
2023-05-09T02:09:54.253Z,101767.56
2023-05-09T02:12:20.809Z,101763.25
2023-05-09T02:14:47.328Z,101753.59
2023-05-09T02:17:17.001Z,101760.63
2023-05-09T02:19:44.238Z,101763.25
2023-05-09T02:22:12.577Z,101759.63
2023-05-09T02:24:39.923Z,101753.53
2023-05-09T02:27:07.987Z,101749.19
2023-05-09T02:29:50.787Z,101747.63
2023-05-09T02:32:27.064Z,101750.41
2023-05-09T02:34:54.495Z,101736.53
2023-05-09T02:37:22.192Z,101746.19
2023-05-09T02:39:48.758Z,101740.16
2023-05-09T02:42:22.705Z,101743.06
2023-05-09T02:44:49.160Z,101736.31
2023-05-09T02:47:15.730Z,101743.41
2023-05-09T02:49:42.238Z,101735.72
2023-05-09T02:52:08.727Z,101740.97
2023-05-09T02:54:35.167Z,101739.47
2023-05-09T02:57:01.601Z,101736.91
2023-05-09T02:59:29.689Z,101734.50
2023-05-09T03:01:56.429Z,101726.63
2023-05-09T03:04:23.124Z,101727.53
2023-05-09T03:06:49.680Z,101719.84
2023-05-09T03:09:16.107Z,101721.56
2023-05-09T03:11:42.539Z,101720.69
2023-05-09T03:14:10.722Z,101714.41
2023-05-09T03:16:37.225Z,101711.81
2023-05-09T03:19:04.006Z,101708.28
2023-05-09T03:21:31.953Z,101712.63
2023-05-09T03:23:58.583Z,101701.31
2023-05-09T03:26:26.501Z,101694.28
2023-05-09T03:28:53.009Z,101692.59
2023-05-09T03:31:19.500Z,101688.31
2023-05-09T03:33:47.556Z,101692.72
2023-05-09T03:36:14.510Z,101688.31
2023-05-09T03:38:41.012Z,101678.72
2023-05-09T03:41:07.442Z,101676.28
2023-05-09T03:43:33.910Z,101669.44
2023-05-09T03:46:00.473Z,101664.19
2023-05-09T03:48:26.926Z,101662.41
2023-05-09T03:50:53.434Z,101657.22
2023-05-09T03:53:20.590Z,101659.00
2023-05-09T03:55:47.117Z,101647.69
2023-05-09T03:58:13.634Z,101642.44
2023-05-09T04:00:41.022Z,101641.72
2023-05-09T04:03:07.782Z,101647.03
2023-05-09T04:05:35.368Z,101641.88
2023-05-09T04:08:02.567Z,101640.16
2023-05-09T04:10:30.699Z,101634.19
2023-05-09T04:12:57.199Z,101637.47
2023-05-09T04:15:23.684Z,101644.56
2023-05-09T04:17:52.504Z,101647.38
2023-05-09T04:20:19.015Z,101638.66
2023-05-09T04:22:47.005Z,101638.66
2023-05-09T04:25:14.510Z,101641.47
2023-05-09T04:27:41.213Z,101643.25
2023-05-09T04:30:08.524Z,101636.31
2023-05-09T04:32:35.764Z,101638.94
2023-05-09T04:35:03.946Z,101644.19
2023-05-09T04:37:31.538Z,101646.81
2023-05-09T04:39:58.369Z,101633.59
2023-05-09T04:42:24.808Z,101638.84
2023-05-09T04:44:51.853Z,101631.81
2023-05-09T04:47:18.310Z,101630.06
2023-05-09T04:49:44.805Z,101624.72
2023-05-09T04:52:11.248Z,101621.25
2023-05-09T04:54:37.685Z,101614.41
2023-05-09T04:57:16.590Z,101612.63
2023-05-09T04:59:44.178Z,101608.22
2023-05-09T05:02:10.764Z,101605.53
2023-05-09T05:04:37.218Z,101609.00
2023-05-09T05:07:03.699Z,101607.03
2023-05-09T05:09:30.537Z,101604.34
2023-05-09T05:12:01.608Z,101607.69
2023-05-09T05:14:29.160Z,101603.22
2023-05-09T05:16:55.821Z,101595.25
2023-05-09T05:19:22.257Z,101590.78
2023-05-09T05:21:48.742Z,101581.88
2023-05-09T05:24:15.235Z,101574.78
2023-05-09T05:26:41.740Z,101574.59
2023-05-09T05:29:08.752Z,101577.88
2023-05-09T05:31:35.256Z,101565.44
2023-05-09T05:34:01.963Z,101562.56
2023-05-09T05:36:28.405Z,101564.97
2023-05-09T05:38:54.877Z,101556.91
2023-05-09T05:41:21.287Z,101559.28
2023-05-09T05:43:47.756Z,101557.38
2023-05-09T05:46:14.272Z,101565.06
2023-05-09T05:48:40.739Z,101559.56
2023-05-09T05:51:07.165Z,101560.88
2023-05-09T05:53:33.653Z,101557.00
2023-05-09T05:56:00.149Z,101554.94
2023-05-09T05:58:26.724Z,101543.44
2023-05-09T06:00:53.235Z,101540.63
2023-05-09T06:03:19.875Z,101540.31
2023-05-09T06:05:47.391Z,101539.38
2023-05-09T06:08:13.821Z,101553.13
2023-05-09T06:10:40.423Z,101547.03
2023-05-09T06:13:07.252Z,101541.59
2023-05-09T06:15:33.862Z,101541.53
2023-05-09T06:18:00.541Z,101540.56
2023-05-09T06:20:27.265Z,101537.00
2023-05-09T06:22:53.824Z,101530.16
2023-05-09T06:25:20.264Z,101529.25
2023-05-09T06:27:49.020Z,101523.16
2023-05-09T06:30:25.529Z,101523.88
2023-05-09T06:32:53.547Z,101515.16
2023-05-09T06:35:20.342Z,101510.03
2023-05-09T06:37:48.686Z,101510.75
2023-05-09T06:40:16.250Z,101502.16
2023-05-09T06:42:42.742Z,101496.03
2023-05-09T06:45:09.783Z,101494.16
2023-05-09T06:47:36.472Z,101488.91
2023-05-09T06:50:03.689Z,101491.53
2023-05-09T06:52:30.323Z,101487.03
2023-05-09T06:54:56.842Z,101488.72
2023-05-09T06:57:23.518Z,101489.56
2023-05-09T06:59:50.134Z,101483.34
2023-05-09T07:02:16.706Z,101490.19
2023-05-09T07:04:43.367Z,101479.50
2023-05-09T07:07:09.883Z,101480.25
2023-05-09T07:09:36.393Z,101479.31
2023-05-09T07:12:02.993Z,101479.22
2023-05-09T07:14:29.489Z,101472.91
2023-05-09T07:17:05.180Z,101472.81
2023-05-09T07:19:41.312Z,101470.09
2023-05-09T07:22:07.889Z,101469.88
2023-05-09T07:24:34.470Z,101466.22
2023-05-09T07:27:03.837Z,101466.13
2023-05-09T07:29:30.618Z,101464.56
2023-05-09T07:32:01.038Z,101460.22
2023-05-09T07:34:27.614Z,101462.00
2023-05-09T07:36:54.398Z,101458.63
2023-05-09T07:39:21.058Z,101460.53
2023-05-09T07:41:48.763Z,101459.91
2023-05-09T07:44:15.990Z,101458.75
2023-05-09T07:46:42.842Z,101451.81
2023-05-09T07:49:09.764Z,101457.06
2023-05-09T07:51:36.332Z,101447.50
2023-05-09T07:54:02.965Z,101446.56
2023-05-09T07:56:29.568Z,101449.59
2023-05-09T07:58:56.068Z,101447.91
2023-05-09T08:01:22.695Z,101442.75
2023-05-09T08:03:49.328Z,101435.44
2023-05-09T08:06:16.110Z,101431.84
2023-05-09T08:08:42.648Z,101426.41
2023-05-09T08:11:09.193Z,101423.47
2023-05-09T08:13:35.834Z,101420.94
2023-05-09T08:16:02.923Z,101421.03
2023-05-09T08:18:29.541Z,101416.09
2023-05-09T08:20:56.250Z,101411.03
2023-05-09T08:23:22.803Z,101414.50
2023-05-09T08:25:53.180Z,101408.34
2023-05-09T08:28:23.089Z,101400.47
2023-05-09T08:30:52.392Z,101397.41
2023-05-09T08:33:19.161Z,101391.44
2023-05-09T08:35:46.169Z,101395.72
2023-05-09T08:38:12.756Z,101394.69
2023-05-09T08:40:41.375Z,101393.53
2023-05-09T08:43:08.832Z,101392.38
2023-05-09T08:45:39.653Z,101391.47
2023-05-09T08:48:07.109Z,101393.00
2023-05-09T08:50:35.623Z,101387.88
2023-05-09T08:53:02.569Z,101389.53
2023-05-09T08:55:29.517Z,101383.75
2023-05-09T08:57:57.692Z,101379.84
2023-05-09T09:00:26.357Z,101380.16
2023-05-09T09:02:55.479Z,101372.41
2023-05-09T09:05:39.933Z,101366.00
2023-05-09T09:08:07.909Z,101364.97
2023-05-09T09:10:35.091Z,101368.09
2023-05-09T09:13:04.976Z,101372.13
2023-05-09T09:15:36.429Z,101366.75
2023-05-09T09:18:09.810Z,101370.31
2023-05-09T09:20:41.686Z,101367.81
2023-05-09T09:23:12.774Z,101361.63
2023-05-09T09:25:39.693Z,101366.75
2023-05-09T09:28:06.405Z,101362.66
2023-05-09T09:30:33.071Z,101360.03
2023-05-09T09:33:00.442Z,101354.97
2023-05-09T09:35:27.109Z,101362.66
2023-05-09T09:38:02.624Z,101353.72
2023-05-09T09:40:29.125Z,101343.84
2023-05-09T09:42:55.700Z,101350.56
2023-05-09T09:45:22.351Z,101349.00
2023-05-09T09:47:50.257Z,101343.66
2023-05-09T09:50:26.219Z,101342.06
2023-05-09T09:52:55.674Z,101345.53
2023-05-09T09:55:24.158Z,101339.34
2023-05-09T09:57:51.641Z,101335.97
2023-05-09T10:00:26.304Z,101340.00
2023-05-09T10:02:54.957Z,101341.13
2023-05-09T10:05:32.471Z,101336.38
2023-05-09T10:08:00.778Z,101339.63
2023-05-09T10:10:34.154Z,101339.00
2023-05-09T10:13:02.686Z,101333.88
2023-05-09T10:15:41.572Z,101331.56
2023-05-09T10:18:19.853Z,101327.75
2023-05-09T10:20:50.368Z,101332.94
2023-05-09T10:23:18.263Z,101329.69
2023-05-09T10:25:48.205Z,101333.34
2023-05-09T10:28:22.991Z,101321.81
2023-05-09T10:30:55.668Z,101321.50
2023-05-09T10:33:30.910Z,101316.44
2023-05-09T10:36:00.625Z,101313.81
2023-05-09T10:38:27.580Z,101317.59
2023-05-09T10:40:55.058Z,101315.91
2023-05-09T10:43:27.212Z,101302.25
2023-05-09T10:45:54.290Z,101305.00
2023-05-09T10:48:21.294Z,101297.13
2023-05-09T10:50:48.664Z,101300.56
2023-05-09T10:53:17.082Z,101291.66
2023-05-09T10:55:48.458Z,101288.28
2023-05-09T10:58:47.714Z,101288.06
2023-05-09T11:01:14.211Z,101284.91
2023-05-09T11:03:58.416Z,101283.13
2023-05-09T11:06:55.716Z,101279.03
2023-05-09T11:09:33.402Z,101283.06
2023-05-09T11:12:06.015Z,101275.69
2023-05-09T11:14:35.673Z,101266.97
2023-05-09T11:17:06.789Z,101270.34
2023-05-09T11:19:45.509Z,101272.00
2023-05-09T11:22:19.608Z,101260.47
2023-05-09T11:24:47.383Z,101257.09
2023-05-09T11:27:16.888Z,101257.09
2023-05-09T11:29:50.764Z,101244.69
2023-05-09T11:32:17.607Z,101251.00
2023-05-09T11:34:45.348Z,101251.13
2023-05-09T11:37:13.512Z,101237.13
2023-05-09T11:39:58.561Z,101236.28
2023-05-09T11:42:29.136Z,101235.97
2023-05-09T11:44:57.344Z,101233.56
2023-05-09T11:47:24.645Z,101229.69
2023-05-09T11:49:52.067Z,101227.25
2023-05-09T11:52:20.135Z,101226.50
2023-05-09T11:54:46.574Z,101220.41
2023-05-09T11:57:17.299Z,101225.56
2023-05-09T11:59:47.709Z,101219.47
2023-05-09T12:02:14.441Z,101220.97
2023-05-09T12:04:41.031Z,101215.38
2023-05-09T12:07:07.668Z,101226.22
2023-05-09T12:09:38.221Z,101223.25
2023-05-09T12:12:14.453Z,101216.03
2023-05-09T12:14:41.780Z,101215.28
2023-05-09T12:17:08.456Z,101213.69
2023-05-09T12:19:35.729Z,101212.03
2023-05-09T12:22:05.462Z,101213.69
2023-05-09T12:24:39.681Z,101215.63
2023-05-09T12:27:07.900Z,101203.97
2023-05-09T12:29:35.077Z,101203.63
2023-05-09T12:32:01.677Z,101196.91
2023-05-09T12:34:28.879Z,101191.25
2023-05-09T12:36:55.480Z,101199.63
2023-05-09T12:39:23.009Z,101191.13
2023-05-09T12:42:01.231Z,101189.66
2023-05-09T12:44:29.851Z,101182.00
2023-05-09T12:47:04.320Z,101181.25
2023-05-09T12:49:32.070Z,101175.16
2023-05-09T12:52:03.011Z,101180.13
2023-05-09T12:54:31.131Z,101173.06
2023-05-09T12:57:02.036Z,101164.03
2023-05-09T12:59:29.137Z,101169.56
2023-05-09T13:02:00.299Z,101164.72
2023-05-09T13:04:28.337Z,101162.63
2023-05-09T13:06:57.401Z,101155.50
2023-05-09T13:09:25.805Z,101154.75
2023-05-09T13:11:52.605Z,101153.91
2023-05-09T13:14:23.009Z,101153.09
2023-05-09T13:16:49.472Z,101154.44
2023-05-09T13:19:16.328Z,101150.38
2023-05-09T13:21:42.933Z,101145.09
2023-05-09T13:24:09.426Z,101132.72
2023-05-09T13:26:35.930Z,101133.44
2023-05-09T13:29:06.186Z,101134.91
2023-05-09T13:31:32.765Z,101124.91
2023-05-09T13:33:59.244Z,101128.50
2023-05-09T13:36:25.677Z,101124.06
2023-05-09T13:38:52.144Z,101120.63
2023-05-09T13:41:23.540Z,101115.03
2023-05-09T13:43:50.511Z,101114.75
2023-05-09T13:46:17.167Z,101108.94
2023-05-09T13:48:44.375Z,101109.28
2023-05-09T13:51:11.107Z,101114.19
2023-05-09T13:53:41.359Z,101111.78
2023-05-09T13:56:09.469Z,101105.47
2023-05-09T13:58:36.317Z,101109.38
2023-05-09T14:01:03.163Z,101111.16
2023-05-09T14:03:29.692Z,101105.84
2023-05-09T14:05:59.263Z,101105.66
2023-05-09T14:08:25.771Z,101104.81
2023-05-09T14:10:52.182Z,101104.06
2023-05-09T14:13:18.748Z,101095.25
2023-05-09T14:15:45.297Z,101095.16
2023-05-09T14:18:15.531Z,101097.88
2023-05-09T14:20:42.543Z,101091.78
2023-05-09T14:23:08.972Z,101089.78
2023-05-09T14:25:35.518Z,101086.63
2023-05-09T14:28:02.062Z,101084.41
2023-05-09T14:30:28.541Z,101084.69
2023-05-09T14:32:55.068Z,101078.69
2023-05-09T14:35:21.576Z,101072.59
2023-05-09T14:37:48.125Z,101076.41
2023-05-09T14:40:15.779Z,101070.31
2023-05-09T14:42:42.456Z,101067.91
2023-05-09T14:45:12.090Z,101065.16
2023-05-09T14:47:38.883Z,101063.41
2023-05-09T14:50:06.084Z,101062.66
2023-05-09T14:52:32.524Z,101058.84
2023-05-09T14:54:59.756Z,101058.53
2023-05-09T14:57:26.530Z,101050.53
2023-05-09T14:59:53.048Z,101053.50
2023-05-09T15:02:19.464Z,101048.69
2023-05-09T15:04:45.914Z,101050.38
2023-05-09T15:07:12.527Z,101042.16
2023-05-09T15:09:38.944Z,101041.53
2023-05-09T15:12:05.508Z,101040.81
2023-05-09T15:14:35.875Z,101031.38
2023-05-09T15:17:04.282Z,101035.44
2023-05-09T15:19:31.744Z,101029.69
2023-05-09T15:21:59.960Z,101029.91
2023-05-09T15:24:26.963Z,101031.50
2023-05-09T15:26:54.278Z,101021.69
2023-05-09T15:29:21.795Z,101025.06
2023-05-09T15:31:48.925Z,101023.63
2023-05-09T15:34:15.533Z,101021.44
2023-05-09T15:36:42.058Z,101017.75
2023-05-09T15:39:08.694Z,101016.06
2023-05-09T15:41:35.175Z,101018.81
2023-05-09T15:44:01.629Z,101022.25
2023-05-09T15:46:28.378Z,101020.38
2023-05-09T15:48:56.197Z,101017.84
2023-05-09T15:51:22.915Z,101015.34
2023-05-09T15:53:50.118Z,101016.06
2023-05-09T15:56:16.670Z,101012.81
2023-05-09T15:58:43.141Z,101008.31
2023-05-09T16:01:12.940Z,101003.28
2023-05-09T16:03:39.672Z,101002.66
2023-05-09T16:06:06.687Z,101002.03
2023-05-09T16:08:33.253Z,101000.34
2023-05-09T16:11:01.791Z,100999.50
2023-05-09T16:13:28.366Z,101009.38
2023-05-09T16:15:59.454Z,101002.91
2023-05-09T16:18:25.953Z,100998.44
2023-05-09T16:20:52.366Z,100995.91
2023-05-09T16:23:18.821Z,100995.41
2023-05-09T16:25:45.380Z,100988.50
2023-05-09T16:28:11.811Z,100992.03
2023-05-09T16:30:38.266Z,100991.00
2023-05-09T16:33:04.759Z,100988.59
2023-05-09T16:35:31.310Z,100979.88
2023-05-09T16:37:57.856Z,100978.44
2023-05-09T16:40:24.337Z,100975.69
2023-05-09T16:42:50.762Z,100979.03
2023-05-09T16:45:17.340Z,100980.50
2023-05-09T16:47:43.979Z,100973.03
2023-05-09T16:50:10.949Z,100973.75
2023-05-09T16:52:37.677Z,100967.56
2023-05-09T16:55:05.974Z,100971.13
2023-05-09T16:57:32.612Z,100966.59
2023-05-09T16:59:59.125Z,100964.81
2023-05-09T17:02:25.713Z,100959.69
2023-05-09T17:04:52.487Z,100963.38
2023-05-09T17:07:19.235Z,100955.50
2023-05-09T17:09:48.582Z,100954.66
2023-05-09T17:12:17.972Z,100951.28
2023-05-09T17:14:45.715Z,100951.28
2023-05-09T17:17:13.055Z,100952.25
2023-05-09T17:19:39.561Z,100956.66
2023-05-09T17:22:07.812Z,100951.53
2023-05-09T17:24:34.697Z,100952.16
2023-05-09T17:27:01.426Z,100954.78
2023-05-09T17:29:29.372Z,100942.50
2023-05-09T17:32:04.763Z,100948.56
2023-05-09T17:34:32.135Z,100948.78
2023-05-09T17:36:58.956Z,100941.13
2023-05-09T17:39:25.447Z,100948.28
2023-05-09T17:41:51.925Z,100943.16
2023-05-09T17:44:21.108Z,100943.28
2023-05-09T17:46:48.106Z,100941.47
2023-05-09T17:49:15.262Z,100942.63
2023-05-09T17:51:41.694Z,100941.38
2023-05-09T17:54:08.324Z,100938.75
2023-05-09T17:56:34.825Z,100941.50
2023-05-09T17:59:01.590Z,100939.94
2023-05-09T18:01:28.638Z,100939.44
2023-05-09T18:03:55.427Z,100945.72
2023-05-09T18:06:24.374Z,100943.13
2023-05-09T18:08:51.015Z,100940.59
2023-05-09T18:11:17.536Z,100942.50
2023-05-09T18:13:43.925Z,100936.28
2023-05-09T18:16:10.390Z,100940.69
2023-05-09T18:18:39.987Z,100940.59
2023-05-09T18:21:08.008Z,100937.25
2023-05-09T18:23:34.513Z,100934.09
2023-05-09T18:26:01.754Z,100935.88
2023-05-09T18:28:28.771Z,100938.63
2023-05-09T18:30:57.031Z,100937.88
2023-05-09T18:33:27.210Z,100935.25
2023-05-09T18:35:54.629Z,100937.06
2023-05-09T18:38:21.608Z,100934.53
2023-05-09T18:40:48.506Z,100937.47
2023-05-09T18:43:16.584Z,100935.81
2023-05-09T18:45:45.000Z,100935.91
2023-05-09T18:48:11.594Z,100939.56
2023-05-09T18:50:38.029Z,100932.53
2023-05-09T18:53:06.046Z,100935.06
2023-05-09T18:55:32.526Z,100937.78
2023-05-09T18:57:59.117Z,100935.44
2023-05-09T19:00:25.705Z,100936.41
2023-05-09T19:02:52.211Z,100932.94
2023-05-09T19:05:18.893Z,100940.59
2023-05-09T19:07:45.357Z,100939.66
2023-05-09T19:10:12.407Z,100939.56
2023-05-09T19:12:38.927Z,100940.06
2023-05-09T19:15:05.934Z,100935.78
2023-05-09T19:17:32.807Z,100936.75
2023-05-09T19:19:59.338Z,100948.16
2023-05-09T19:22:25.826Z,100939.44
2023-05-09T19:24:52.355Z,100949.09
2023-05-09T19:27:19.113Z,100948.06
2023-05-09T19:29:46.553Z,100957.72
2023-05-09T19:32:14.010Z,100948.16
2023-05-09T19:34:40.420Z,100948.16
2023-05-09T19:37:06.860Z,100958.00
2023-05-09T19:39:33.410Z,100958.22
2023-05-09T19:42:00.599Z,100960.13
2023-05-09T19:44:27.286Z,100969.78
2023-05-09T19:46:54.977Z,100964.72
2023-05-09T19:49:21.646Z,100969.22
2023-05-09T19:51:48.837Z,100960.75
2023-05-09T19:54:15.311Z,100964.50
2023-05-09T19:56:41.908Z,100968.38
2023-05-09T19:59:08.415Z,100965.03
2023-05-09T20:01:34.943Z,100969.75
2023-05-09T20:04:01.640Z,100978.44
2023-05-09T20:06:28.060Z,100977.59
2023-05-09T20:08:54.533Z,100972.47
2023-05-09T20:11:21.613Z,100976.84
2023-05-09T20:13:48.081Z,100985.78
2023-05-09T20:16:15.083Z,100981.56
2023-05-09T20:18:41.544Z,100982.28
2023-05-09T20:21:09.796Z,100984.06
2023-05-09T20:23:36.753Z,100980.75
2023-05-09T20:26:03.282Z,100989.63
2023-05-09T20:28:29.706Z,100986.25
2023-05-09T20:30:56.168Z,100986.69
2023-05-09T20:33:22.570Z,100993.59
2023-05-09T20:35:49.247Z,100990.34
2023-05-09T20:38:15.933Z,100989.50
2023-05-09T20:40:43.308Z,100991.59
2023-05-09T20:43:09.803Z,100992.53
2023-05-09T20:45:38.952Z,100991.06
2023-05-09T20:48:07.724Z,100999.94
2023-05-09T20:50:34.156Z,100997.63
2023-05-09T20:53:00.623Z,100995.00
2023-05-09T20:55:28.648Z,100997.63
2023-05-09T20:57:55.077Z,101005.66
2023-05-09T21:00:21.712Z,101004.75
2023-05-09T21:02:48.267Z,101000.66
2023-05-09T21:05:14.856Z,101011.13
2023-05-09T21:07:41.313Z,101004.38
2023-05-09T21:10:10.129Z,101002.72
2023-05-09T21:12:37.054Z,101000.94
2023-05-09T21:15:03.794Z,100998.44
2023-05-09T21:17:30.341Z,101000.28
2023-05-09T21:19:56.816Z,100987.97
2023-05-09T21:22:23.267Z,100996.00
2023-05-09T21:24:50.787Z,100996.09
2023-05-09T21:27:17.308Z,100993.59
2023-05-09T21:29:43.739Z,100992.00
2023-05-09T21:32:10.466Z,100981.53
2023-05-09T21:34:36.878Z,100984.06
2023-05-09T21:37:03.271Z,100981.44
2023-05-09T21:39:30.390Z,100977.03
2023-05-09T21:41:57.708Z,100978.19
2023-05-09T21:44:24.549Z,100979.22
2023-05-09T21:46:51.107Z,100981.00
2023-05-09T21:49:17.725Z,100978.47
2023-05-09T21:51:44.163Z,100973.97
2023-05-09T21:54:11.111Z,100971.25
2023-05-09T21:56:37.693Z,100977.44
2023-05-09T21:59:04.248Z,100965.94
2023-05-09T22:01:30.680Z,100964.16
2023-05-09T22:03:57.221Z,100967.50
2023-05-09T22:06:23.679Z,100965.00
2023-05-09T22:08:51.123Z,100968.56
2023-05-09T22:11:18.028Z,100966.78
2023-05-09T22:13:44.464Z,100965.09
2023-05-09T22:16:11.004Z,100970.22
2023-05-09T22:18:37.499Z,100961.53
2023-05-09T22:21:04.347Z,100961.63
2023-05-09T22:23:30.762Z,100953.78
2023-05-09T22:25:57.172Z,100958.09
2023-05-09T22:28:23.612Z,100956.38
2023-05-09T22:30:50.039Z,100961.81
2023-05-09T22:33:16.456Z,100958.38
2023-05-09T22:35:42.890Z,100963.41
2023-05-09T22:38:09.403Z,100952.09
2023-05-09T22:40:36.123Z,100955.66
2023-05-09T22:43:02.705Z,100957.44
2023-05-09T22:45:29.286Z,100956.59
2023-05-09T22:47:55.815Z,100953.56
2023-05-09T22:50:22.348Z,100964.84
2023-05-09T22:52:48.789Z,100955.50
2023-05-09T22:55:16.045Z,100957.19
2023-05-09T22:57:42.590Z,100955.50
2023-05-09T23:00:09.698Z,100958.13
2023-05-09T23:02:36.139Z,100959.81
2023-05-09T23:05:03.229Z,100958.13
2023-05-09T23:07:31.186Z,100960.84
2023-05-09T23:09:57.651Z,100957.47
2023-05-09T23:12:24.057Z,100958.50
2023-05-09T23:14:50.596Z,100967.38
2023-05-09T23:17:17.104Z,100960.47
2023-05-09T23:19:43.626Z,100961.38
2023-05-09T23:22:10.056Z,100955.31
2023-05-09T23:24:36.593Z,100953.53
2023-05-09T23:27:03.028Z,100954.56
2023-05-09T23:29:29.497Z,100954.69
2023-05-09T23:31:57.992Z,100959.16
2023-05-09T23:34:25.196Z,100956.66
2023-05-09T23:36:51.792Z,100960.31
2023-05-09T23:39:18.382Z,100957.78
2023-05-09T23:41:44.817Z,100952.66
2023-05-09T23:44:14.083Z,100956.19
2023-05-09T23:46:40.689Z,100954.44
2023-05-09T23:49:07.256Z,100958.81
2023-05-09T23:51:33.713Z,100952.00
2023-05-09T23:54:00.250Z,100949.38
2023-05-09T23:56:26.783Z,100950.31
2023-05-09T23:58:53.204Z,100948.47
